Time;durP1;ratioP1;P1;durP2;ratioP2;P2;SDS_P1;SDS_P2;PMS_P1;PMS_P2;Temp;Humidity;BMP_temperature;BMP_pressure;BME280_temperature;BME280_humidity;BME280_pressure;Samples;Min_cycle;Max_cycle;Signal;HPM_P1;HPM_P2
2022/06/15 00:00:06;;;;;;;4.20;2.60;;;;;;;25.39;51.82;101219.86;106966;1283;62052;-82
2022/06/15 00:02:32;;;;;;;4.30;2.70;;;;;;;25.38;51.84;101218.83;106901;1283;76394;-81
2022/06/15 00:04:58;;;;;;;4.10;2.70;;;;;;;25.38;51.76;101215.77;106866;1283;62191;-80
2022/06/15 00:07:23;;;;;;;3.50;2.70;;;;;;;25.38;51.97;101210.95;106924;1283;62376;-82
2022/06/15 00:09:49;;;;;;;3.80;2.60;;;;;;;25.38;51.77;101202.46;106770;1283;62176;-80
2022/06/15 00:12:14;;;;;;;3.60;2.90;;;;;;;25.38;51.73;101201.44;106908;1283;60120;-81
2022/06/15 00:14:40;;;;;;;3.60;2.80;;;;;;;25.37;51.79;101201.27;106873;1283;75469;-81
2022/06/15 00:17:06;;;;;;;3.30;2.60;;;;;;;25.38;51.77;101203.20;107063;1283;62053;-81
2022/06/15 00:19:31;;;;;;;4.10;2.50;;;;;;;25.38;51.77;101198.54;107115;1283;62171;-80
2022/06/15 00:21:57;;;;;;;4.10;2.50;;;;;;;25.37;51.78;101197.14;106836;1283;62144;-81
2022/06/15 00:24:23;;;;;;;3.50;2.50;;;;;;;25.37;51.75;101198.56;106801;1283;62089;-80
2022/06/15 00:26:49;;;;;;;3.90;2.50;;;;;;;25.37;51.77;101202.55;106896;1283;62079;-81
2022/06/15 00:29:14;;;;;;;4.60;2.50;;;;;;;25.37;51.77;101199.46;106804;1283;62175;-80
2022/06/15 00:31:40;;;;;;;5.10;2.70;;;;;;;25.37;51.72;101197.17;106758;1283;62031;-81
2022/06/15 00:34:06;;;;;;;3.10;2.40;;;;;;;25.37;51.89;101198.05;107072;1281;62807;-81
2022/06/15 00:36:31;;;;;;;4.00;2.50;;;;;;;25.37;51.79;101194.81;107019;1281;62124;-81
2022/06/15 00:38:58;;;;;;;3.50;2.50;;;;;;;25.37;51.67;101195.20;106837;1283;62081;-82
2022/06/15 00:41:32;;;;;;;4.20;2.70;;;;;;;25.37;51.77;101188.73;106884;1283;62058;-82
2022/06/15 00:44:02;;;;;;;4.20;2.70;;;;;;;25.36;51.87;101187.83;107174;1283;73924;-80
2022/06/15 00:46:37;;;;;;;3.60;2.50;;;;;;;25.36;51.73;101186.29;107193;1282;75242;-81
2022/06/15 00:49:09;;;;;;;3.40;2.30;;;;;;;25.36;51.85;101186.46;107045;1281;62101;-83
2022/06/15 00:51:35;;;;;;;3.90;2.70;;;;;;;25.35;51.61;101185.06;107210;1281;61936;-81
2022/06/15 00:54:00;;;;;;;4.50;3.00;;;;;;;25.35;51.75;101178.59;107026;1283;62074;-82
2022/06/15 00:56:27;;;;;;;3.40;2.40;;;;;;;25.34;51.70;101175.95;107206;1283;62139;-85
2022/06/15 00:58:55;;;;;;;3.50;2.50;;;;;;;25.34;51.73;101172.53;106937;1283;61925;-83
2022/06/15 01:01:21;;;;;;;4.10;2.50;;;;;;;25.34;51.76;101173.65;107245;1281;62168;-83
2022/06/15 01:03:49;;;;;;;4.70;2.60;;;;;;;25.34;51.69;101173.66;107177;1281;62104;-82
2022/06/15 01:06:22;;;;;;;3.60;2.40;;;;;;;25.33;51.72;101169.89;107203;1281;76489;-82
2022/06/15 01:09:12;;;;;;;3.70;2.50;;;;;;;25.33;51.80;101168.12;106891;1282;61967;-82
2022/06/15 01:12:06;;;;;;;4.20;2.30;;;;;;;25.33;51.74;101165.98;107016;1283;61963;-81
2022/06/15 01:14:59;;;;;;;3.50;2.40;;;;;;;25.32;51.85;101166.02;107197;1281;72700;-82
2022/06/15 01:17:37;;;;;;;3.30;2.30;;;;;;;25.32;51.81;101170.75;107208;1282;75310;-82
2022/06/15 01:20:21;;;;;;;3.50;2.50;;;;;;;25.31;51.65;101169.66;107281;1281;62056;-82
2022/06/15 01:22:52;;;;;;;3.40;2.60;;;;;;;25.31;51.74;101172.94;107226;1283;61422;-83
2022/06/15 01:25:45;;;;;;;3.30;2.50;;;;;;;25.31;51.75;101171.36;107226;1281;73221;-82
2022/06/15 01:28:26;;;;;;;3.10;2.30;;;;;;;25.30;51.63;101167.95;107253;1281;75160;-84
2022/06/15 01:31:04;;;;;;;3.60;2.50;;;;;;;25.30;51.76;101169.45;107235;1281;62094;-82
2022/06/15 01:34:02;;;;;;;3.20;2.30;;;;;;;25.30;51.77;101167.09;107291;1281;61952;-81
2022/06/15 01:36:42;;;;;;;3.60;2.50;;;;;;;25.29;51.69;101164.84;106200;1289;72935;-82
2022/06/15 01:39:45;;;;;;;3.40;2.40;;;;;;;25.29;51.61;101161.95;105953;1289;74807;-81
2022/06/15 01:42:16;;;;;;;3.40;2.50;;;;;;;25.28;51.71;101160.94;105534;1295;61946;-82
2022/06/15 01:44:45;;;;;;;3.50;2.30;;;;;;;25.29;51.81;101161.05;105474;1297;62090;-82
2022/06/15 01:47:12;;;;;;;;;;;;;;;25.29;51.70;101166.63;105483;1295;72892;-82
2022/06/15 01:49:43;;;;;;;3.60;2.30;;;;;;;25.26;51.73;101170.46;105492;1295;63236;-84
2022/06/15 01:52:11;;;;;;;3.30;2.30;;;;;;;25.27;51.70;101173.27;105434;1297;62116;-82
2022/06/15 01:54:40;;;;;;;3.20;2.40;;;;;;;25.27;51.58;101176.31;105532;1295;61989;-82
2022/06/15 01:57:06;;;;;;;3.10;2.30;;;;;;;25.27;51.60;101174.33;105401;1295;72570;-82
2022/06/15 01:59:53;;;;;;;3.70;2.50;;;;;;;25.28;51.69;101175.90;105410;1297;62217;-83
2022/06/15 02:02:40;;;;;;;4.10;2.60;;;;;;;25.27;51.80;101178.63;105527;1295;61956;-83
2022/06/15 02:05:14;;;;;;;4.10;2.50;;;;;;;25.28;51.63;101175.55;105464;1295;61958;-83
2022/06/15 02:07:50;;;;;;;3.90;2.30;;;;;;;25.27;51.54;101172.56;105495;1295;72564;-81
2022/06/15 02:10:22;;;;;;;3.30;2.40;;;;;;;25.28;51.65;101174.83;105463;1297;74357;-82
2022/06/15 02:13:02;;;;;;;3.40;2.40;;;;;;;25.28;51.63;101179.15;105456;1297;62146;-82
2022/06/15 02:15:29;;;;;;;3.60;2.30;;;;;;;25.28;51.69;101184.02;106227;1289;61929;-80
2022/06/15 02:17:57;;;;;;;3.40;2.40;;;;;;;25.27;51.54;101184.81;106146;1289;73964;-82
2022/06/15 02:20:28;;;;;;;3.80;2.50;;;;;;;25.27;51.55;101189.61;106537;1283;76690;-82
2022/06/15 02:22:55;;;;;;;3.30;2.30;;;;;;;25.27;51.65;101190.73;106826;1283;62102;-81
2022/06/15 02:25:22;;;;;;;3.80;2.50;;;;;;;25.27;51.62;101194.86;107248;1281;62165;-82
2022/06/15 02:27:50;;;;;;;3.70;2.20;;;;;;;25.27;51.70;101196.31;107013;1283;72607;-85
2022/06/15 02:30:20;;;;;;;3.30;2.20;;;;;;;25.27;51.51;101200.80;107258;1281;74171;-82
2022/06/15 02:32:47;;;;;;;3.00;2.20;;;;;;;25.27;51.52;101196.48;106955;1283;61958;-83
2022/06/15 02:35:14;;;;;;;4.60;2.40;;;;;;;25.27;51.59;101199.91;106904;1281;62078;-82
2022/06/15 02:37:40;;;;;;;3.90;2.50;;;;;;;25.27;51.65;101201.89;106954;1281;73662;-82
2022/06/15 02:40:07;;;;;;;3.40;2.30;;;;;;;25.27;51.70;101205.16;107106;1281;62086;-82
2022/06/15 02:42:38;;;;;;;4.00;2.50;;;;;;;25.26;51.56;101211.14;107035;1281;62097;-82
2022/06/15 02:45:07;;;;;;;3.10;2.20;;;;;;;25.27;51.60;101217.95;106896;1283;61999;-84
2022/06/15 02:47:33;;;;;;;3.60;2.20;;;;;;;25.27;51.67;101220.11;107021;1283;73783;-82
2022/06/15 02:50:00;;;;;;;3.70;2.30;;;;;;;25.27;51.61;101223.86;106859;1283;75570;-82
2022/06/15 02:52:28;;;;;;;3.30;2.20;;;;;;;25.26;51.72;101224.27;106858;1283;62092;-82
2022/06/15 02:54:54;;;;;;;3.60;2.40;;;;;;;25.27;51.57;101228.41;106540;1283;62061;-82
2022/06/15 02:57:20;;;;;;;3.20;2.10;;;;;;;25.26;51.65;101230.60;106640;1283;61992;-82
2022/06/15 02:59:46;;;;;;;4.40;2.20;;;;;;;25.26;51.53;101234.92;106909;1283;62600;-83
2022/06/15 03:02:14;;;;;;;3.30;2.10;;;;;;;25.26;51.57;101234.20;106968;1283;62028;-82
2022/06/15 03:04:44;;;;;;;3.80;2.30;;;;;;;25.26;51.64;101234.38;107030;1282;62084;-83
2022/06/15 03:07:11;;;;;;;3.80;2.60;;;;;;;25.26;51.74;101229.53;106884;1283;71626;-81
2022/06/15 03:09:37;;;;;;;3.10;2.30;;;;;;;25.26;51.63;101229.52;107004;1283;75536;-85
2022/06/15 03:12:03;;;;;;;3.50;2.50;;;;;;;25.26;51.64;101230.25;107002;1283;61887;-82
2022/06/15 03:14:30;;;;;;;3.80;2.20;;;;;;;25.26;51.54;101231.70;106928;1283;62070;-82
2022/06/15 03:16:59;;;;;;;3.20;2.10;;;;;;;25.26;51.63;101233.87;106900;1283;61953;-83
2022/06/15 03:19:25;;;;;;;3.70;2.30;;;;;;;25.26;51.56;101235.48;107245;1283;76239;-82
2022/06/15 03:21:50;;;;;;;3.90;2.10;;;;;;;25.26;51.52;101240.02;107031;1283;62123;-84
2022/06/15 03:24:16;;;;;;;3.50;2.50;;;;;;;25.26;51.47;101243.42;106894;1283;59986;-81
2022/06/15 03:26:42;;;;;;;3.80;2.10;;;;;;;25.26;51.45;101247.01;106955;1283;62152;-82
2022/06/15 03:29:08;;;;;;;3.50;2.20;;;;;;;25.26;51.54;101242.88;107261;1281;62114;-82
2022/06/15 03:31:33;;;;;;;4.70;2.60;;;;;;;25.26;51.57;101247.55;106991;1283;62069;-81
2022/06/15 03:33:59;;;;;;;2.70;2.10;;;;;;;25.26;51.57;101250.25;107220;1283;62035;-82
2022/06/15 03:36:25;;;;;;;3.00;2.20;;;;;;;25.26;51.60;101250.61;107120;1283;62081;-83
2022/06/15 03:38:51;;;;;;;3.20;2.30;;;;;;;25.26;51.67;101248.97;107018;1283;59960;-82
2022/06/15 03:41:18;;;;;;;3.90;2.20;;;;;;;25.26;51.59;101248.27;106940;1283;62059;-82
2022/06/15 03:43:43;;;;;;;3.30;2.20;;;;;;;25.26;51.57;101253.83;106933;1283;62107;-82
2022/06/15 03:46:13;;;;;;;3.40;2.20;;;;;;;25.26;51.44;101254.58;106949;1283;62075;-82
2022/06/15 03:48:38;;;;;;;3.90;2.20;;;;;;;25.26;51.57;101260.66;107142;1283;73796;-82
2022/06/15 03:51:04;;;;;;;3.60;2.20;;;;;;;25.26;51.57;101262.48;107263;1281;62033;-82
2022/06/15 03:53:30;;;;;;;3.40;2.30;;;;;;;25.26;51.63;101260.50;107162;1281;62038;-84
2022/06/15 03:55:55;;;;;;;4.20;2.30;;;;;;;25.27;51.62;101258.33;107028;1283;62089;-82
2022/06/15 03:58:21;;;;;;;3.10;2.20;;;;;;;25.27;51.54;101257.23;107003;1282;62076;-82
2022/06/15 04:00:47;;;;;;;2.50;2.00;;;;;;;25.27;51.52;101254.33;106693;1283;62506;-79
2022/06/15 04:03:13;;;;;;;2.90;2.20;;;;;;;25.27;51.48;101255.41;106677;1283;76169;-82
2022/06/15 04:05:49;;;;;;;3.90;2.40;;;;;;;25.27;51.49;101260.25;107071;1282;62051;-82
2022/06/15 04:08:38;;;;;;;3.10;2.10;;;;;;;25.27;51.44;101256.45;106971;1283;61929;-81
2022/06/15 04:11:06;;;;;;;3.60;2.40;;;;;;;25.28;51.67;101256.80;107262;1281;72494;-81
2022/06/15 04:13:32;;;;;;;2.90;2.20;;;;;;;25.27;51.54;101256.83;106895;1281;75792;-81
2022/06/15 04:15:57;;;;;;;3.90;2.10;;;;;;;25.27;51.53;101256.48;106929;1281;62043;-82
2022/06/15 04:18:23;;;;;;;3.20;2.30;;;;;;;25.27;51.44;101261.52;106920;1281;62073;-82
2022/06/15 04:20:48;;;;;;;3.50;2.30;;;;;;;25.26;51.55;101264.08;106915;1283;62117;-82
2022/06/15 04:23:15;;;;;;;3.50;1.90;;;;;;;25.27;51.48;101262.82;106950;1281;62154;-82
2022/06/15 04:25:46;;;;;;;3.90;2.10;;;;;;;25.25;51.36;101263.98;107040;1282;62168;-82
2022/06/15 04:28:13;;;;;;;3.60;2.20;;;;;;;25.25;51.40;101264.71;107149;1281;61966;-82
2022/06/15 04:30:39;;;;;;;4.50;2.30;;;;;;;25.25;51.27;101263.83;106919;1283;73716;-83
2022/06/15 04:33:04;;;;;;;3.20;2.00;;;;;;;25.26;51.18;101264.70;107009;1281;62090;-83
2022/06/15 04:35:30;;;;;;;3.80;2.30;;;;;;;25.26;51.11;101261.08;106953;1281;62069;-82
2022/06/15 04:37:56;;;;;;;4.10;2.30;;;;;;;25.26;50.92;101268.28;106933;1283;62104;-82
2022/06/15 04:40:22;;;;;;;4.00;2.30;;;;;;;25.27;50.85;101269.64;107138;1283;62162;-82
2022/06/15 04:42:47;;;;;;;4.10;2.50;;;;;;;25.27;50.97;101272.88;107167;1282;62056;-82
2022/06/15 04:45:14;;;;;;;4.60;2.40;;;;;;;25.28;50.67;101272.29;107222;1283;76761;-83
2022/06/15 04:47:39;;;;;;;2.90;2.10;;;;;;;25.28;50.60;101274.41;107239;1283;62086;-82
2022/06/15 04:50:06;;;;;;;5.40;2.30;;;;;;;25.29;50.29;101278.15;106917;1283;62264;-82
2022/06/15 04:52:31;;;;;;;3.80;2.30;;;;;;;25.29;50.26;101280.14;106964;1283;61944;-83
2022/06/15 04:54:57;;;;;;;3.70;2.30;;;;;;;25.27;50.09;101275.73;106987;1283;62077;-82
2022/06/15 04:57:23;;;;;;;4.40;2.20;;;;;;;25.28;49.80;101275.69;106592;1283;62083;-82
2022/06/15 04:59:48;;;;;;;4.70;2.30;;;;;;;25.28;49.88;101277.09;106859;1283;62106;-82
2022/06/15 05:02:15;;;;;;;4.60;2.40;;;;;;;25.29;49.75;101277.05;107032;1283;62164;-81
2022/06/15 05:04:41;;;;;;;4.70;2.50;;;;;;;25.30;49.50;101278.98;107199;1283;72936;-82
2022/06/15 05:07:07;;;;;;;3.90;2.20;;;;;;;25.31;49.44;101281.77;107219;1283;75412;-82
2022/06/15 05:09:33;;;;;;;4.60;2.30;;;;;;;25.31;49.11;101283.02;106502;1283;62048;-82
2022/06/15 05:11:59;;;;;;;4.40;2.20;;;;;;;25.32;49.00;101287.11;106878;1283;62209;-82
2022/06/15 05:14:25;;;;;;;6.00;2.10;;;;;;;25.32;48.82;101289.23;106884;1283;62106;-82
2022/06/15 05:16:51;;;;;;;6.50;2.40;;;;;;;25.33;48.52;101287.39;106853;1283;62077;-82
2022/06/15 05:19:17;;;;;;;5.20;2.40;;;;;;;25.32;48.40;101291.57;107055;1282;62082;-83
2022/06/15 05:21:43;;;;;;;3.10;2.20;;;;;;;25.31;48.25;101293.42;107204;1281;62011;-84
2022/06/15 05:24:09;;;;;;;3.20;2.20;;;;;;;25.32;48.19;101299.36;106860;1281;61948;-81
2022/06/15 05:26:34;;;;;;;3.40;2.10;;;;;;;25.32;48.12;101301.52;107032;1283;62070;-82
2022/06/15 05:29:00;;;;;;;3.70;2.40;;;;;;;25.31;48.10;101304.42;106881;1283;62191;-82
2022/06/15 05:31:26;;;;;;;3.90;2.30;;;;;;;25.31;48.17;101306.59;106753;1283;62259;-81
2022/06/15 05:33:56;;;;;;;4.00;2.30;;;;;;;25.31;48.18;101303.39;106691;1283;62073;-80
2022/06/15 05:36:32;;;;;;;3.30;2.30;;;;;;;25.31;48.00;101299.96;107053;1283;72865;-81
2022/06/15 05:38:58;;;;;;;3.90;2.40;;;;;;;25.31;48.10;101305.55;106520;1283;75401;-80
2022/06/15 05:41:24;;;;;;;5.70;2.40;;;;;;;25.30;48.01;101309.56;106590;1283;62079;-82
2022/06/15 05:43:53;;;;;;;4.80;2.40;;;;;;;25.30;48.01;101315.88;107023;1283;62157;-84
2022/06/15 05:46:21;;;;;;;;;;;;;;;25.30;47.83;101317.70;107023;1282;71774;-83
2022/06/15 05:48:47;;;;;;;6.10;2.40;;;;;;;25.27;47.91;101321.54;107227;1281;76478;-83
2022/06/15 05:51:13;;;;;;;3.90;2.30;;;;;;;25.27;47.82;101326.94;106945;1281;62082;-83
2022/06/15 05:53:38;;;;;;;4.50;2.70;;;;;;;25.26;47.69;101336.15;107011;1283;63190;-84
2022/06/15 05:56:04;;;;;;;5.00;2.40;;;;;;;25.26;47.55;101341.04;106825;1281;62171;-81
2022/06/15 05:58:29;;;;;;;8.10;2.30;;;;;;;25.25;47.56;101348.48;107088;1283;62073;-83
2022/06/15 06:00:55;;;;;;;6.50;2.70;;;;;;;25.24;47.31;101350.71;107202;1281;62013;-81
2022/06/15 06:03:21;;;;;;;4.50;2.10;;;;;;;25.24;47.08;101360.13;107047;1283;62172;-81
2022/06/15 06:05:46;;;;;;;4.10;2.50;;;;;;;25.24;46.90;101360.36;106846;1283;61025;-81
2022/06/15 06:08:12;;;;;;;5.30;2.70;;;;;;;25.23;46.84;101357.84;107151;1283;62073;-81
2022/06/15 06:10:38;;;;;;;5.40;2.40;;;;;;;25.23;46.78;101360.77;106777;1283;62144;-82
2022/06/15 06:13:03;;;;;;;7.10;2.40;;;;;;;25.22;46.65;101362.98;106817;1283;62042;-82
2022/06/15 06:15:30;;;;;;;6.30;2.60;;;;;;;25.21;46.38;101361.43;106883;1281;331072;-81
2022/06/15 06:17:56;;;;;;;4.70;2.40;;;;;;;25.21;46.29;101364.11;107022;1281;63019;-81
2022/06/15 06:20:21;;;;;;;5.10;2.60;;;;;;;25.21;46.16;101362.73;106844;1283;62552;-82
2022/06/15 06:22:47;;;;;;;5.60;2.20;;;;;;;25.20;46.01;101364.77;107128;1283;62388;-81
2022/06/15 06:25:12;;;;;;;4.00;2.40;;;;;;;25.20;45.75;101368.19;106800;1283;60149;-81
2022/06/15 06:27:38;;;;;;;4.30;2.50;;;;;;;25.20;45.58;101369.09;106860;1283;62090;-81
2022/06/15 06:30:04;;;;;;;6.30;2.70;;;;;;;25.20;45.50;101372.53;106777;1283;62260;-82
2022/06/15 06:32:30;;;;;;;6.00;2.50;;;;;;;25.20;45.22;101375.77;106520;1283;73787;-81
2022/06/15 06:34:55;;;;;;;5.30;2.50;;;;;;;25.19;45.07;101373.45;106761;1283;64101;-81
2022/06/15 06:37:21;;;;;;;6.40;2.40;;;;;;;25.19;44.94;101374.17;106876;1283;62516;-81
2022/06/15 06:39:47;;;;;;;5.60;2.40;;;;;;;25.20;44.68;101372.14;106981;1283;62087;-81
2022/06/15 06:42:12;;;;;;;5.60;2.50;;;;;;;25.21;44.66;101373.31;106736;1283;62116;-81
2022/06/15 06:44:38;;;;;;;5.20;2.40;;;;;;;25.22;44.74;101376.46;106675;1283;73823;-81
2022/06/15 06:47:04;;;;;;;4.60;2.50;;;;;;;25.24;44.84;101378.84;106938;1281;62171;-81
2022/06/15 06:49:30;;;;;;;4.20;2.40;;;;;;;25.26;44.61;101376.56;106740;1281;62143;-81
2022/06/15 06:51:55;;;;;;;6.10;2.30;;;;;;;25.27;44.75;101375.55;106791;1283;62105;-80
2022/06/15 06:54:21;;;;;;;4.30;2.00;;;;;;;25.29;44.76;101378.69;106796;1281;60312;-81
2022/06/15 06:56:47;;;;;;;4.90;2.50;;;;;;;25.29;44.55;101377.77;107110;1283;61953;-81
2022/06/15 06:59:14;;;;;;;5.70;2.30;;;;;;;25.30;44.65;101374.81;107166;1283;62152;-81
2022/06/15 07:01:42;;;;;;;4.90;2.20;;;;;;;25.30;44.39;101368.83;106635;1283;61901;-81
2022/06/15 07:04:08;;;;;;;4.00;2.20;;;;;;;25.30;44.43;101372.59;106762;1282;62672;-80
2022/06/15 07:06:34;;;;;;;4.00;2.20;;;;;;;25.32;44.19;101370.17;106638;1283;61959;-80
2022/06/15 07:09:01;;;;;;;3.60;2.10;;;;;;;25.32;44.10;101370.34;106725;1283;62245;-81
2022/06/15 07:11:27;;;;;;;4.60;2.10;;;;;;;25.33;44.11;101372.23;106507;1283;62071;-81
2022/06/15 07:13:52;;;;;;;4.00;2.10;;;;;;;25.33;44.06;101371.17;106895;1283;62013;-81
2022/06/15 07:16:19;;;;;;;4.30;2.20;;;;;;;25.34;43.90;101377.55;106717;1283;79233;-81
2022/06/15 07:18:46;;;;;;;5.10;2.10;;;;;;;25.33;43.87;101375.09;106640;1283;62137;-81
2022/06/15 07:21:17;;;;;;;4.50;2.20;;;;;;;25.34;43.66;101377.73;106469;1283;61385;-81
2022/06/15 07:23:43;;;;;;;7.10;2.40;;;;;;;25.35;43.58;101374.08;106861;1282;61336;-82
2022/06/15 07:26:15;;;;;;;3.90;2.20;;;;;;;25.35;43.62;101374.76;106730;1283;73140;-81
2022/06/15 07:28:41;;;;;;;4.30;2.30;;;;;;;25.36;43.48;101379.00;107129;1281;75241;-81
2022/06/15 07:31:06;;;;;;;4.60;2.20;;;;;;;25.37;43.54;101383.23;106825;1281;61973;-84
2022/06/15 07:33:36;;;;;;;3.60;2.20;;;;;;;25.38;43.32;101385.48;106854;1283;62053;-82
2022/06/15 07:36:03;;;;;;;5.00;2.10;;;;;;;25.39;43.26;101385.27;106666;1283;73822;-81
2022/06/15 07:38:29;;;;;;;7.00;2.10;;;;;;;25.39;43.20;101388.48;106614;1281;76559;-82
2022/06/15 07:40:57;;;;;;;4.70;2.10;;;;;;;25.40;42.94;101385.36;106891;1281;60893;-80
2022/06/15 07:43:23;;;;;;;3.20;2.40;;;;;;;25.40;42.78;101390.41;106666;1282;61908;-80
2022/06/15 07:45:49;;;;;;;4.40;2.10;;;;;;;25.40;42.83;101388.77;106548;1283;62188;-83
2022/06/15 07:50:59;;;;;;;4.80;2.20;;;;;;;25.42;42.70;101394.57;106482;1283;61960;-80
2022/06/15 07:53:24;;;;;;;4.20;1.90;;;;;;;25.41;42.49;101391.76;106625;1283;62143;-81
2022/06/15 07:55:52;;;;;;;4.10;2.20;;;;;;;25.42;42.63;101396.94;106713;1282;62244;-81
2022/06/15 07:58:17;;;;;;;4.50;2.30;;;;;;;25.42;42.37;101399.04;106583;1283;62181;-81
2022/06/15 08:00:44;;;;;;;4.80;2.20;;;;;;;25.43;42.66;101401.34;106584;1283;60899;-81
2022/06/15 08:03:10;;;;;;;5.00;2.20;;;;;;;25.43;42.33;101402.40;107266;1281;59811;-81
2022/06/15 08:05:40;;;;;;;6.30;2.00;;;;;;;25.43;42.32;101402.73;106716;1283;62186;-81
2022/06/15 08:08:19;;;;;;;4.00;2.30;;;;;;;25.43;42.07;101396.48;106904;1283;76281;-81
2022/06/15 08:10:45;;;;;;;3.50;2.20;;;;;;;25.43;42.18;101400.64;106704;1283;62163;-81
2022/06/15 08:13:11;;;;;;;3.60;2.20;;;;;;;25.43;42.13;101402.99;106722;1283;62090;-82
2022/06/15 08:15:37;;;;;;;4.40;2.00;;;;;;;25.43;42.15;101401.70;106909;1281;62118;-81
2022/06/15 08:18:05;;;;;;;4.80;1.90;;;;;;;25.44;42.09;101400.05;106591;1281;62189;-80
2022/06/15 08:20:36;;;;;;;6.00;2.30;;;;;;;25.43;42.19;101402.04;106706;1283;62050;-81
2022/06/15 08:23:06;;;;;;;4.70;2.00;;;;;;;25.43;42.07;101403.29;106764;1281;62073;-81
2022/06/15 08:25:34;;;;;;;4.30;1.90;;;;;;;25.44;41.96;101396.98;106868;1283;72604;-81
2022/06/15 08:27:59;;;;;;;3.20;1.80;;;;;;;25.44;42.14;101398.77;106848;1283;76711;-79
2022/06/15 08:30:26;;;;;;;3.50;2.10;;;;;;;25.44;42.05;101401.27;106816;1283;62042;-80
2022/06/15 08:32:52;;;;;;;3.50;2.20;;;;;;;25.44;41.65;101398.38;106819;1283;62222;-81
2022/06/15 08:35:18;;;;;;;4.30;1.90;;;;;;;25.44;41.74;101398.00;106882;1281;62041;-80
2022/06/15 08:37:43;;;;;;;4.70;2.10;;;;;;;25.44;41.78;101395.84;106972;1281;62176;-81
2022/06/15 08:40:10;;;;;;;4.80;2.20;;;;;;;25.44;41.47;101398.17;106999;1281;62107;-82
2022/06/15 08:43:29;;;;;;;4.10;2.20;;;;;;;25.44;41.69;101403.61;106437;1283;64480;-82
2022/06/15 08:45:57;;;;;;;3.60;1.80;;;;;;;25.43;41.56;101396.12;106305;1286;73751;-81
2022/06/15 08:48:35;;;;;;;4.20;2.20;;;;;;;25.42;41.69;101398.70;106321;1288;75363;-81
2022/06/15 08:51:12;;;;;;;5.10;2.20;;;;;;;25.42;41.71;101400.67;106360;1286;61937;-81
2022/06/15 08:53:56;;;;;;;5.90;2.10;;;;;;;25.42;41.44;101400.73;106242;1286;61989;-81
2022/06/15 08:56:31;;;;;;;4.50;1.90;;;;;;;25.42;41.56;101405.03;106175;1286;72825;-82
2022/06/15 08:59:01;;;;;;;3.90;1.90;;;;;;;25.42;41.41;101407.39;106344;1286;76143;-81
2022/06/15 09:01:32;;;;;;;4.90;2.20;;;;;;;25.42;41.34;101406.13;106299;1286;62073;-82
2022/06/15 09:04:24;;;;;;;6.90;2.20;;;;;;;25.42;41.33;101410.41;106028;1286;62222;-81
2022/06/15 09:07:13;;;;;;;4.60;2.20;;;;;;;25.42;41.47;101409.31;106121;1286;72950;-80
2022/06/15 09:09:44;;;;;;;4.90;2.20;;;;;;;25.43;41.36;101416.14;106372;1286;75170;-81
2022/06/15 09:15:24;;;;;;;4.00;1.90;;;;;;;25.43;41.31;101410.19;106401;1286;61944;-80
2022/06/15 09:17:51;;;;;;;5.00;2.00;;;;;;;25.43;41.29;101414.15;106587;1281;71613;-81
2022/06/15 09:20:20;;;;;;;4.60;2.30;;;;;;;25.43;41.24;101413.73;107023;1281;76276;-80
2022/06/15 09:22:53;;;;;;;4.50;2.20;;;;;;;25.44;41.12;101411.34;107163;1281;62078;-81
2022/06/15 09:25:31;;;;;;;4.30;2.00;;;;;;;25.44;41.13;101407.39;107007;1283;61979;-80
2022/06/15 09:28:00;;;;;;;6.10;2.00;;;;;;;25.45;41.23;101410.23;106735;1283;72622;-80
2022/06/15 09:30:28;;;;;;;5.30;2.10;;;;;;;25.44;41.00;101412.77;106549;1283;75314;-79
2022/06/15 09:32:58;;;;;;;4.80;2.30;;;;;;;25.45;41.16;101410.56;105986;1283;62073;-81
2022/06/15 09:35:46;;;;;;;4.10;2.30;;;;;;;25.45;41.08;101409.28;105969;1283;62184;-80
2022/06/15 09:38:13;;;;;;;3.50;2.10;;;;;;;25.46;41.03;101416.41;107858;1281;73812;-80
2022/06/15 09:40:55;;;;;;;4.10;2.10;;;;;;;25.47;41.12;101418.70;107110;1283;66898;-80
2022/06/15 09:43:49;;;;;;;3.40;2.00;;;;;;;25.48;41.05;101416.63;106832;1281;62037;-81
2022/06/15 09:46:55;;;;;;;3.40;2.00;;;;;;;25.49;40.79;101414.24;106691;1281;62170;-81
2022/06/15 09:49:42;;;;;;;4.90;1.90;;;;;;;25.49;41.07;101417.30;105817;1287;73675;-81
2022/06/15 09:52:56;;;;;;;2.90;1.80;;;;;;;25.49;41.01;101415.49;105726;1289;74322;-81
2022/06/15 09:55:38;;;;;;;5.80;2.30;;;;;;;25.48;40.88;101421.52;105155;1297;62180;-82
2022/06/15 09:58:05;;;;;;;4.10;2.00;;;;;;;25.48;41.04;101418.27;105622;1289;62100;-80
2022/06/15 10:00:31;;;;;;;4.10;2.30;;;;;;;25.47;40.88;101417.04;105488;1292;73026;-82
2022/06/15 10:02:59;;;;;;;4.10;2.10;;;;;;;25.48;40.86;101419.13;105741;1289;62164;-81
2022/06/15 10:05:27;;;;;;;5.70;2.40;;;;;;;25.48;40.85;101416.98;106012;1289;62091;-81
2022/06/15 10:07:53;;;;;;;4.40;2.40;;;;;;;25.48;40.71;101416.66;106021;1289;62065;-81
2022/06/15 10:10:21;;;;;;;3.90;2.00;;;;;;;25.48;40.80;101413.41;105862;1289;62383;-81
2022/06/15 10:12:59;;;;;;;3.80;2.10;;;;;;;25.48;40.72;101414.64;106283;1289;76410;-82
2022/06/15 10:15:48;;;;;;;3.30;2.00;;;;;;;25.48;40.55;101411.79;106156;1289;60497;-82
2022/06/15 10:18:18;;;;;;;4.50;2.30;;;;;;;25.47;40.54;101409.66;106210;1288;61958;-81
2022/06/15 10:20:58;;;;;;;3.60;2.00;;;;;;;25.47;40.53;101409.71;106159;1289;72741;-82
2022/06/15 10:23:38;;;;;;;4.40;2.10;;;;;;;25.46;40.52;101407.77;105869;1289;74748;-82
2022/06/15 10:26:04;;;;;;;3.50;2.10;;;;;;;25.46;40.52;101399.65;106132;1283;62081;-82
2022/06/15 10:28:39;;;;;;;6.10;2.10;;;;;;;25.46;40.51;101400.38;106609;1281;62055;-82
2022/06/15 10:31:07;;;;;;;3.30;2.00;;;;;;;25.46;40.32;101394.98;106930;1283;74013;-82
2022/06/15 10:33:42;;;;;;;5.50;2.00;;;;;;;25.46;40.50;101397.15;106805;1283;75254;-81
2022/06/15 10:36:21;;;;;;;3.70;2.00;;;;;;;25.46;40.34;101400.38;106917;1281;63160;-82
2022/06/15 10:39:09;;;;;;;4.00;1.90;;;;;;;25.46;40.40;101389.60;106710;1283;61989;-82
2022/06/15 10:41:46;;;;;;;4.20;2.40;;;;;;;25.46;40.33;101389.57;106763;1283;73658;-82
2022/06/15 10:44:18;;;;;;;3.80;2.10;;;;;;;25.45;40.40;101383.50;106801;1283;75483;-83
2022/06/15 10:46:52;;;;;;;6.10;2.10;;;;;;;25.46;40.32;101380.98;106781;1283;62053;-82
2022/06/15 10:49:18;;;;;;;4.10;2.20;;;;;;;25.45;40.13;101378.27;107016;1281;63281;-84
2022/06/15 10:51:44;;;;;;;3.50;2.00;;;;;;;25.45;40.20;101377.38;107094;1283;62060;-82
2022/06/15 11:03:19;;;;;;;3.80;2.20;;;;;;;25.44;40.20;101376.06;106765;1283;72432;-81
2022/06/15 11:05:45;;;;;;;5.70;2.40;;;;;;;25.44;40.25;101374.44;106713;1283;76585;-82
2022/06/15 11:08:14;;;;;;;3.90;2.10;;;;;;;25.44;40.19;101371.73;106555;1284;62481;-81
2022/06/15 11:10:44;;;;;;;4.00;2.10;;;;;;;25.44;40.31;101371.71;106780;1283;61967;-81
2022/06/15 11:13:22;;;;;;;3.30;2.10;;;;;;;25.44;40.17;101371.20;106932;1282;72720;-85
2022/06/15 11:18:33;;;;;;;5.70;2.40;;;;;;;25.44;40.27;101360.02;107069;1281;62600;-82
2022/06/15 11:21:23;;;;;;;3.60;2.00;;;;;;;25.44;40.19;101365.61;107047;1281;62238;-83
2022/06/15 11:24:11;;;;;;;8.20;2.20;;;;;;;25.44;40.09;101361.09;107149;1281;74896;-82
2022/06/15 11:27:03;;;;;;;4.20;2.30;;;;;;;25.44;40.18;101364.17;107115;1280;75403;-82
2022/06/15 11:29:36;;;;;;;3.20;2.00;;;;;;;25.44;40.02;101357.52;106984;1281;62028;-82
2022/06/15 11:32:37;;;;;;;6.30;2.30;;;;;;;25.44;40.01;101353.16;107159;1283;62018;-82
2022/06/15 11:35:12;;;;;;;3.60;2.10;;;;;;;25.44;40.00;101346.53;107055;1283;74342;-82
2022/06/15 11:37:46;;;;;;;6.30;2.20;;;;;;;25.44;40.10;101345.80;107119;1283;74568;-83
2022/06/15 11:40:14;;;;;;;4.60;2.40;;;;;;;25.44;39.94;101347.92;107145;1283;62064;-83
2022/06/15 11:42:40;;;;;;;3.90;2.00;;;;;;;25.44;39.98;101348.48;107099;1283;61907;-83
2022/06/15 11:45:13;;;;;;;4.50;2.10;;;;;;;25.44;39.98;101351.02;106984;1283;62017;-82
2022/06/15 11:48:17;;;;;;;7.50;2.40;;;;;;;25.44;39.90;101342.91;106887;1283;75459;-82